Time;durP1;ratioP1;P1;durP2;ratioP2;P2;SDS_P1;SDS_P2;PMS_P1;PMS_P2;Temp;Humidity;BMP_temperature;BMP_pressure;BME280_temperature;BME280_humidity;BME280_pressure;Samples;Min_cycle;Max_cycle;Signal;HPM_P1;HPM_P2
2022/01/24 00:01:49;;;;;;;9.93;9.20;;;3.70;99.90;;;;;;5021919;28;20186;-65
2022/01/24 00:04:14;;;;;;;10.40;9.50;;;3.70;99.90;;;;;;5031714;28;20206;-65
2022/01/24 00:06:41;;;;;;;9.67;9.07;;;3.70;99.90;;;;;;5022923;28;20258;-66
2022/01/24 00:09:08;;;;;;;10.53;9.60;;;3.70;99.90;;;;;;5011996;28;20234;-67
2022/01/24 00:11:44;;;;;;;10.30;9.40;;;3.70;99.90;;;;;;5018689;28;20179;-65
2022/01/24 00:17:31;;;;;;;11.03;9.63;;;3.70;99.90;;;;;;5025323;28;20643;-66
2022/01/24 00:27:15;;;;;;;12.27;11.30;;;3.30;99.90;;;;;;5012100;28;20243;-66
2022/01/24 00:29:41;;;;;;;11.43;10.63;;;3.30;99.90;;;;;;5019926;28;20179;-66
2022/01/24 00:32:07;;;;;;;11.67;10.40;;;3.20;99.90;;;;;;5031260;28;20603;-66
2022/01/24 00:34:33;;;;;;;12.17;11.20;;;3.20;99.90;;;;;;5023205;28;20556;-66
2022/01/24 00:37:00;;;;;;;12.30;10.87;;;3.20;99.90;;;;;;5011424;28;20222;-67
2022/01/24 00:39:26;;;;;;;11.63;10.63;;;3.10;99.90;;;;;;5016429;28;20178;-66
2022/01/24 00:47:20;;;;;;;13.93;12.83;;;3.10;99.90;;;;;;5011952;28;20183;-66
2022/01/24 00:54:56;;;;;;;11.33;10.53;;;3.10;99.90;;;;;;5018364;28;20230;-66
2022/01/24 00:57:22;;;;;;;12.57;11.60;;;3.00;99.90;;;;;;5030117;28;20226;-66
2022/01/24 00:59:49;;;;;;;13.30;12.30;;;2.90;99.90;;;;;;5025890;28;20190;-66
2022/01/24 01:02:16;;;;;;;13.00;12.00;;;2.90;99.90;;;;;;5011355;28;20172;-66
2022/01/24 01:18:08;;;;;;;13.60;12.60;;;2.70;99.90;;;;;;4999814;28;20668;-66
2022/01/24 01:18:25;;;;;;;11.07;10.17;;;2.50;99.90;;;;;;5024239;28;20759;-66
2022/01/24 01:23:18;;;;;;;11.63;10.63;;;2.30;99.90;;;;;;5020172;28;20186;-66
2022/01/24 01:25:45;;;;;;;10.57;9.77;;;2.20;99.90;;;;;;5034815;28;20178;-66
2022/01/24 01:28:11;;;;;;;10.90;10.00;;;2.20;99.90;;;;;;5030582;28;20243;-66
2022/01/24 01:30:42;;;;;;;10.93;10.13;;;2.10;99.90;;;;;;5014864;28;20168;-66
2022/01/24 01:33:27;;;;;;;10.70;9.90;;;2.10;99.90;;;;;;5017249;28;20629;-66
2022/01/24 01:57:02;;;;;;;12.27;11.17;;;1.80;99.90;;;;;;5034359;28;20171;-66
2022/01/24 01:59:30;;;;;;;12.70;11.60;;;1.80;99.90;;;;;;5025831;28;20184;-66
2022/01/24 02:01:57;;;;;;;12.00;11.00;;;1.80;99.90;;;;;;5042675;28;20545;-66
2022/01/24 02:04:22;;;;;;;11.67;10.77;;;1.90;99.90;;;;;;5052737;28;20256;-66
2022/01/24 02:06:48;;;;;;;11.87;10.97;;;1.90;99.90;;;;;;5043029;28;20195;-66
2022/01/24 02:09:16;;;;;;;12.40;11.33;;;1.90;99.90;;;;;;5025726;28;20218;-66
2022/01/24 02:11:41;;;;;;;11.80;10.90;;;1.90;99.90;;;;;;5015346;28;20172;-67
2022/01/24 02:14:12;;;;;;;12.87;11.77;;;1.90;99.90;;;;;;5033402;28;20206;-66
2022/01/24 02:16:53;;;;;;;12.60;11.40;;;1.90;99.90;;;;;;5033475;28;20302;-66
2022/01/24 02:19:34;;;;;;;12.30;11.30;;;2.00;99.90;;;;;;5014090;28;20199;-66
2022/01/24 02:24:31;;;;;;;11.90;10.77;;;2.00;99.90;;;;;;5032045;28;20203;-66
2022/01/24 02:26:58;;;;;;;13.20;11.87;;;2.00;99.90;;;;;;5030634;28;20618;-66
2022/01/24 02:31:58;;;;;;;13.37;11.83;;;2.10;99.90;;;;;;5033468;28;20175;-66
2022/01/24 02:34:34;;;;;;;13.67;12.57;;;2.10;99.90;;;;;;5032545;28;20211;-66
2022/01/24 02:37:09;;;;;;;13.63;12.43;;;2.00;99.90;;;;;;5013931;28;20561;-66
2022/01/24 02:39:50;;;;;;;13.33;12.07;;;2.10;99.90;;;;;;5015299;28;20200;-66
2022/01/24 02:53:17;;;;;;;13.40;12.40;;;2.10;99.90;;;;;;5016891;28;20204;-67
2022/01/24 02:55:43;;;;;;;12.77;11.17;;;2.20;99.90;;;;;;5023463;28;20275;-67
2022/01/24 02:58:09;;;;;;;11.67;10.67;;;2.20;99.90;;;;;;5034284;28;20227;-66
2022/01/24 03:00:36;;;;;;;11.40;10.27;;;2.20;99.90;;;;;;5025787;28;20191;-67
2022/01/24 03:03:03;;;;;;;11.53;10.53;;;2.20;99.90;;;;;;5014087;28;20256;-67
2022/01/24 03:05:29;;;;;;;11.23;10.37;;;2.20;99.90;;;;;;5019388;28;20194;-66
2022/01/24 03:07:55;;;;;;;11.33;10.43;;;2.30;99.90;;;;;;5030103;28;20588;-66
2022/01/24 03:10:30;;;;;;;11.80;11.00;;;2.40;99.90;;;;;;5013838;28;20186;-67
2022/01/24 03:15:38;;;;;;;13.40;12.30;;;2.40;99.90;;;;;;5033646;28;20704;-67
2022/01/24 03:18:05;;;;;;;12.33;11.33;;;2.50;99.90;;;;;;5029914;28;20630;-67
2022/01/24 03:20:30;;;;;;;12.87;11.93;;;2.60;99.90;;;;;;5013893;28;20176;-67
2022/01/24 03:22:56;;;;;;;13.10;12.07;;;2.60;99.90;;;;;;5014895;28;20172;-67
2022/01/24 03:25:22;;;;;;;13.97;12.67;;;2.70;99.90;;;;;;5033469;28;20175;-67
2022/01/24 03:27:47;;;;;;;13.27;12.33;;;2.60;99.90;;;;;;5033228;28;20261;-67
2022/01/24 03:30:13;;;;;;;13.30;12.40;;;2.60;99.90;;;;;;5013489;28;20176;-68
2022/01/24 03:32:38;;;;;;;12.90;12.00;;;2.60;99.90;;;;;;5013214;28;20173;-67
2022/01/24 03:35:07;;;;;;;13.50;12.50;;;2.60;99.90;;;;;;5031075;28;20259;-67
2022/01/24 03:37:34;;;;;;;11.43;10.63;;;2.60;99.90;;;;;;5032986;28;20202;-67
2022/01/24 03:40:01;;;;;;;11.40;10.53;;;2.60;99.90;;;;;;5014777;28;20191;-66
2022/01/24 03:42:26;;;;;;;12.30;11.30;;;2.60;99.90;;;;;;5012265;28;20180;-67
2022/01/24 03:44:57;;;;;;;12.67;11.67;;;2.60;99.90;;;;;;5028248;28;20187;-67
2022/01/24 03:50:01;;;;;;;12.77;11.67;;;2.60;99.90;;;;;;5016732;28;20286;-65
2022/01/24 03:52:30;;;;;;;12.53;11.63;;;2.70;99.90;;;;;;5012685;28;20176;-65
2022/01/24 03:54:56;;;;;;;12.30;11.37;;;2.70;99.90;;;;;;5027431;28;20199;-67
2022/01/24 03:57:22;;;;;;;12.40;11.47;;;2.70;99.90;;;;;;5032875;28;20231;-67
2022/01/24 03:59:48;;;;;;;12.27;11.37;;;2.80;99.90;;;;;;5019021;28;20211;-67
2022/01/24 04:02:15;;;;;;;11.93;10.93;;;2.90;99.90;;;;;;5022265;28;20241;-68
2022/01/24 04:04:41;;;;;;;12.83;11.53;;;2.90;99.90;;;;;;5032496;28;20629;-66
2022/01/24 04:07:07;;;;;;;12.20;11.30;;;3.00;99.90;;;;;;5023577;28;20684;-67
2022/01/24 04:09:34;;;;;;;12.87;11.87;;;3.00;99.90;;;;;;5012468;28;20180;-67
2022/01/24 04:12:01;;;;;;;12.30;11.40;;;3.10;99.90;;;;;;5018469;28;20219;-66
2022/01/24 04:22:13;;;;;;;12.10;11.00;;;3.30;99.90;;;;;;5026178;28;20194;-67
2022/01/24 04:24:39;;;;;;;11.57;10.70;;;3.30;99.90;;;;;;5031638;28;20183;-66
2022/01/24 04:27:05;;;;;;;12.67;11.27;;;3.30;99.90;;;;;;5017808;28;20238;-66
2022/01/24 04:29:32;;;;;;;13.57;12.27;;;3.40;99.90;;;;;;5011913;28;20653;-66
2022/01/24 04:31:57;;;;;;;11.67;10.87;;;3.50;99.90;;;;;;5023572;28;20194;-66
2022/01/24 04:34:23;;;;;;;13.93;11.90;;;3.50;99.90;;;;;;5027928;28;20238;-66
2022/01/24 04:36:49;;;;;;;12.33;11.33;;;3.50;99.90;;;;;;5011784;28;20575;-66
2022/01/24 04:39:15;;;;;;;11.30;10.47;;;3.50;99.90;;;;;;5013372;28;20218;-66
2022/01/24 04:41:45;;;;;;;10.70;9.90;;;3.60;99.90;;;;;;5031476;28;20172;-67
2022/01/24 04:52:32;;;;;;;10.57;9.87;;;3.70;99.90;;;;;;5032159;28;20241;-67
2022/01/24 04:54:58;;;;;;;11.00;10.30;;;3.80;99.90;;;;;;5029685;28;20207;-66
2022/01/24 04:57:26;;;;;;;10.50;9.60;;;3.80;99.90;;;;;;5015767;28;20262;-67
2022/01/24 04:59:53;;;;;;;10.17;9.37;;;3.90;99.90;;;;;;5020048;28;20645;-67
2022/01/24 05:02:21;;;;;;;11.33;10.47;;;4.00;99.90;;;;;;5033116;28;20171;-67
2022/01/24 05:04:48;;;;;;;10.33;9.57;;;4.00;99.90;;;;;;5015501;28;20168;-67
2022/01/24 05:07:14;;;;;;;12.53;9.47;;;4.10;99.90;;;;;;5015167;28;20260;-67
2022/01/24 05:12:28;;;;;;;10.20;9.50;;;4.20;99.90;;;;;;5035074;28;20206;-67
2022/01/24 05:25:52;;;;;;;10.67;9.90;;;3.90;99.90;;;;;;5015129;28;20187;-67
2022/01/24 05:28:18;;;;;;;9.93;9.33;;;3.70;99.90;;;;;;5021271;28;20197;-67
2022/01/24 05:30:43;;;;;;;10.13;9.20;;;3.60;99.90;;;;;;5030892;28;20184;-67
2022/01/24 05:33:10;;;;;;;11.13;10.10;;;3.30;99.90;;;;;;5015013;28;20186;-67
2022/01/24 05:35:36;;;;;;;11.17;10.40;;;3.20;99.90;;;;;;5016559;28;20258;-67
2022/01/24 05:38:02;;;;;;;12.10;11.30;;;3.00;99.90;;;;;;5034574;28;20275;-66
2022/01/24 05:40:27;;;;;;;12.47;11.57;;;2.90;99.90;;;;;;5032677;28;20183;-66
2022/01/24 05:42:53;;;;;;;14.77;13.87;;;2.90;99.90;;;;;;5014545;28;20567;-66
2022/01/24 05:45:19;;;;;;;14.33;13.43;;;2.80;99.90;;;;;;5014725;28;20235;-66
2022/01/24 05:47:45;;;;;;;12.57;11.67;;;2.70;99.90;;;;;;5032821;28;20216;-66
2022/01/24 05:50:11;;;;;;;11.57;10.60;;;2.60;99.90;;;;;;5034394;28;20600;-66
2022/01/24 05:52:36;;;;;;;10.60;9.80;;;2.50;99.90;;;;;;5015683;28;20237;-66
2022/01/24 05:55:05;;;;;;;11.47;10.70;;;2.50;99.90;;;;;;5014596;28;20212;-66
2022/01/24 05:57:30;;;;;;;11.80;10.90;;;2.40;99.90;;;;;;5028839;28;20199;-66
2022/01/24 05:59:56;;;;;;;10.53;9.83;;;2.40;99.90;;;;;;5020411;28;20180;-67
2022/01/24 06:02:22;;;;;;;11.43;10.43;;;2.30;99.90;;;;;;5014085;28;20176;-66
2022/01/24 06:04:48;;;;;;;11.13;10.23;;;2.20;99.90;;;;;;5024110;28;20276;-66
2022/01/24 06:07:13;;;;;;;11.33;10.27;;;2.20;99.90;;;;;;5034019;28;20184;-66
2022/01/24 06:09:39;;;;;;;10.70;9.90;;;2.20;99.90;;;;;;5026039;28;20280;-66
2022/01/24 06:12:05;;;;;;;11.20;10.40;;;2.10;99.90;;;;;;5032454;28;20175;-66
2022/01/24 06:14:31;;;;;;;11.93;10.83;;;1.90;99.90;;;;;;5026141;28;20206;-66
2022/01/24 06:16:56;;;;;;;12.43;11.43;;;1.80;99.90;;;;;;5014255;28;20178;-66
2022/01/24 06:19:22;;;;;;;12.53;11.43;;;1.70;99.90;;;;;;5015111;28;20728;-66
2022/01/24 06:21:48;;;;;;;13.30;12.13;;;1.70;99.90;;;;;;5014084;28;20186;-66
2022/01/24 06:24:14;;;;;;;14.30;13.00;;;1.60;99.90;;;;;;5019752;28;20217;-64
2022/01/24 06:26:41;;;;;;;14.73;13.23;;;1.60;99.90;;;;;;5032486;28;20266;-66
2022/01/24 06:29:06;;;;;;;12.50;11.40;;;1.60;99.90;;;;;;5019868;28;20187;-65
2022/01/24 06:31:32;;;;;;;14.50;13.20;;;1.50;99.90;;;;;;5033683;28;20174;-66
2022/01/24 06:33:58;;;;;;;13.80;12.60;;;1.60;99.90;;;;;;5013895;28;20204;-65
2022/01/24 06:36:24;;;;;;;14.43;13.00;;;1.60;99.90;;;;;;5013665;28;20179;-65
2022/01/24 06:38:50;;;;;;;12.87;11.67;;;1.50;99.90;;;;;;5031053;28;20199;-65
2022/01/24 06:41:25;;;;;;;13.57;12.20;;;1.40;99.90;;;;;;5033432;28;20245;-65
2022/01/24 06:43:50;;;;;;;13.53;12.23;;;1.40;99.90;;;;;;5015847;28;20653;-65
2022/01/24 06:46:16;;;;;;;16.70;13.00;;;1.30;99.90;;;;;;5013512;28;20216;-66
2022/01/24 06:48:41;;;;;;;13.97;12.93;;;1.20;99.90;;;;;;5028403;28;20237;-66
2022/01/24 06:51:10;;;;;;;14.20;12.97;;;1.20;99.90;;;;;;5033406;28;20187;-65
2022/01/24 06:53:37;;;;;;;14.80;13.53;;;1.10;99.90;;;;;;5018582;28;20334;-66
2022/01/24 06:56:04;;;;;;;15.00;13.73;;;1.10;99.90;;;;;;5024263;28;20206;-65
2022/01/24 06:58:30;;;;;;;15.13;13.73;;;1.10;99.90;;;;;;5031532;28;20261;-66
2022/01/24 07:00:56;;;;;;;13.53;12.23;;;1.00;99.90;;;;;;5030168;28;20656;-66
2022/01/24 07:03:21;;;;;;;13.13;12.03;;;1.00;99.90;;;;;;5032802;28;20310;-65
2022/01/24 07:05:47;;;;;;;13.03;11.73;;;0.90;99.90;;;;;;5024984;28;20564;-66
2022/01/24 07:08:12;;;;;;;14.87;13.40;;;0.80;99.90;;;;;;5018285;28;20203;-66
2022/01/24 07:10:38;;;;;;;14.67;13.37;;;0.80;99.90;;;;;;5018819;28;20676;-66
2022/01/24 07:13:03;;;;;;;15.27;13.17;;;0.80;99.90;;;;;;5030945;28;20279;-67
2022/01/24 07:15:34;;;;;;;14.33;12.83;;;0.80;99.90;;;;;;5030930;28;20176;-66
2022/01/24 07:20:28;;;;;;;15.13;13.60;;;0.70;99.90;;;;;;5012822;28;20196;-67
2022/01/24 07:22:53;;;;;;;14.47;13.07;;;0.80;99.90;;;;;;5013695;28;20171;-67
2022/01/24 07:25:21;;;;;;;15.83;14.23;;;0.90;99.90;;;;;;5012770;28;20175;-66
2022/01/24 07:27:46;;;;;;;16.57;14.87;;;1.00;99.90;;;;;;5014335;28;20661;-65
2022/01/24 07:30:12;;;;;;;15.80;14.07;;;1.00;99.90;;;;;;5032403;28;20258;-66
2022/01/24 07:32:38;;;;;;;20.20;13.90;;;1.00;99.90;;;;;;5031368;28;20187;-65
2022/01/24 07:35:04;;;;;;;14.80;13.20;;;1.00;99.90;;;;;;5012736;28;20200;-65
2022/01/24 07:37:30;;;;;;;15.73;13.53;;;1.00;99.90;;;;;;5012471;28;20188;-66
2022/01/24 07:39:56;;;;;;;15.47;14.00;;;1.00;99.90;;;;;;5031014;28;20537;-67
2022/01/24 07:42:40;;;;;;;15.10;13.57;;;1.00;99.90;;;;;;5030613;28;20178;-65
2022/01/24 07:45:06;;;;;;;15.33;13.93;;;1.00;99.90;;;;;;5011702;28;20184;-65
2022/01/24 07:47:32;;;;;;;15.10;13.33;;;1.10;99.90;;;;;;5012254;28;20209;-67
2022/01/24 07:49:57;;;;;;;16.27;14.53;;;1.10;99.90;;;;;;5029876;28;20179;-67
2022/01/24 07:52:23;;;;;;;17.70;13.33;;;1.20;99.90;;;;;;5016856;28;20263;-65
2022/01/24 07:54:48;;;;;;;14.57;13.17;;;1.30;99.90;;;;;;5010812;28;20210;-68
2022/01/24 07:57:14;;;;;;;14.20;12.70;;;1.30;99.90;;;;;;5024804;28;20211;-65
2022/01/24 07:59:40;;;;;;;15.07;13.63;;;1.40;99.90;;;;;;5031770;28;20705;-67
2022/01/24 08:02:05;;;;;;;14.80;13.30;;;1.40;99.90;;;;;;5020409;28;20183;-66
2022/01/24 08:04:31;;;;;;;15.53;13.93;;;1.50;99.90;;;;;;5010476;28;20646;-66
2022/01/24 08:06:56;;;;;;;14.30;12.80;;;1.60;99.90;;;;;;5021184;28;20245;-66
2022/01/24 08:09:22;;;;;;;14.67;13.17;;;1.70;99.90;;;;;;5031606;28;20211;-66
2022/01/24 08:11:48;;;;;;;14.60;13.20;;;1.70;99.90;;;;;;5023851;28;20279;-66
2022/01/24 08:14:13;;;;;;;15.73;14.27;;;1.80;99.90;;;;;;5011699;28;20204;-67
2022/01/24 08:16:40;;;;;;;20.90;13.40;;;1.80;99.90;;;;;;5011717;28;20203;-67
2022/01/24 08:19:05;;;;;;;14.80;13.10;;;1.90;99.90;;;;;;5015392;28;20187;-67
2022/01/24 08:21:31;;;;;;;15.20;13.70;;;2.10;99.90;;;;;;5031540;28;20174;-67
2022/01/24 08:23:57;;;;;;;15.80;14.23;;;2.30;99.90;;;;;;5028945;28;20262;-67
2022/01/24 08:26:23;;;;;;;17.97;15.90;;;2.50;99.90;;;;;;5011831;28;20238;-66
2022/01/24 08:28:48;;;;;;;16.03;14.03;;;2.70;99.90;;;;;;5011439;28;20200;-66
2022/01/24 08:31:15;;;;;;;17.67;15.87;;;2.80;99.90;;;;;;5030035;28;20181;-67
2022/01/24 08:33:41;;;;;;;16.47;14.87;;;2.90;99.90;;;;;;5029739;28;20611;-67
2022/01/24 08:36:06;;;;;;;18.97;14.63;;;3.20;99.90;;;;;;5012646;28;20184;-67
2022/01/24 08:38:35;;;;;;;19.23;15.30;;;3.70;99.90;;;;;;5010039;28;20192;-67
2022/01/24 08:41:08;;;;;;;19.73;15.67;;;4.20;99.90;;;;;;5028754;28;20241;-67
2022/01/24 08:43:51;;;;;;;14.87;13.23;;;4.80;99.90;;;;;;5030936;28;20178;-66
2022/01/24 08:46:17;;;;;;;14.63;13.13;;;5.40;99.90;;;;;;5011056;28;20187;-67
2022/01/24 08:48:45;;;;;;;14.07;12.83;;;6.10;99.90;;;;;;5010338;28;20646;-66
2022/01/24 08:51:11;;;;;;;15.00;13.53;;;6.70;99.90;;;;;;5027727;28;20183;-67
2022/01/24 08:53:36;;;;;;;10.40;9.50;;;7.20;99.90;;;;;;5029430;28;20408;-67
2022/01/24 08:56:05;;;;;;;10.27;9.43;;;7.80;99.90;;;;;;5015403;28;20257;-66
2022/01/24 08:58:32;;;;;;;10.07;9.17;;;8.30;99.90;;;;;;5011500;28;20188;-66
2022/01/24 09:00:58;;;;;;;9.23;8.40;;;8.70;99.90;;;;;;5025938;28;20184;-67
2022/01/24 09:03:25;;;;;;;8.83;8.13;;;9.00;99.90;;;;;;5030996;28;20606;-67
2022/01/24 09:05:53;;;;;;;8.30;7.73;;;9.30;99.90;;;;;;5017829;28;20176;-67
2022/01/24 09:08:19;;;;;;;8.07;7.37;;;9.70;99.90;;;;;;5011467;28;20227;-69
2022/01/24 09:10:47;;;;;;;8.30;7.67;;;10.00;99.90;;;;;;5022963;28;20598;-68
2022/01/24 09:13:12;;;;;;;8.37;7.43;;;10.40;99.90;;;;;;5029668;28;20194;-68
2022/01/24 09:15:38;;;;;;;8.47;7.73;;;10.70;99.90;;;;;;5032202;28;20168;-68
2022/01/24 09:18:04;;;;;;;8.20;7.40;;;10.80;99.90;;;;;;5029913;28;20707;-67
2022/01/24 09:20:30;;;;;;;8.93;8.00;;;11.00;99.90;;;;;;5031003;28;20226;-68
2022/01/24 09:22:56;;;;;;;8.20;7.40;;;11.00;99.90;;;;;;5024771;28;20260;-67
2022/01/24 09:25:22;;;;;;;7.80;7.23;;;11.20;99.90;;;;;;5011169;28;20730;-67
2022/01/24 09:27:48;;;;;;;7.60;7.03;;;11.10;99.90;;;;;;5014455;28;20282;-67
2022/01/24 09:30:17;;;;;;;7.83;7.10;;;11.30;99.90;;;;;;5029739;28;20325;-67
2022/01/24 09:32:43;;;;;;;7.90;7.20;;;11.30;99.90;;;;;;5017029;28;20662;-65
2022/01/24 09:35:11;;;;;;;7.67;6.93;;;11.20;99.90;;;;;;5009893;28;20204;-65
2022/01/24 09:37:38;;;;;;;8.30;7.70;;;10.90;99.90;;;;;;5021335;28;20192;-67
2022/01/24 09:40:05;;;;;;;7.67;7.17;;;10.70;99.90;;;;;;5031395;28;20175;-67
2022/01/24 09:42:31;;;;;;;8.10;7.50;;;10.20;99.90;;;;;;5024315;28;20208;-67
2022/01/24 09:44:57;;;;;;;8.80;8.23;;;9.50;99.90;;;;;;5027412;28;20179;-68
2022/01/24 09:47:22;;;;;;;9.73;8.97;;;9.20;99.90;;;;;;5020550;28;20208;-67
2022/01/24 09:49:51;;;;;;;10.67;9.77;;;8.90;99.90;;;;;;5014438;28;20183;-67
2022/01/24 09:52:18;;;;;;;10.00;9.03;;;8.60;99.90;;;;;;5026375;28;20187;-67
2022/01/24 09:54:43;;;;;;;9.47;8.73;;;8.40;99.90;;;;;;5032681;28;20622;-67
2022/01/24 09:57:09;;;;;;;10.27;9.47;;;8.40;99.90;;;;;;5028858;28;20178;-67
2022/01/24 09:59:35;;;;;;;10.77;10.07;;;8.10;99.90;;;;;;5034041;28;20168;-66
2022/01/24 10:02:02;;;;;;;10.37;9.50;;;7.90;99.90;;;;;;5016824;28;20271;-67
2022/01/24 10:04:28;;;;;;;9.37;8.77;;;7.60;99.90;;;;;;5013415;28;20185;-67
2022/01/24 10:07:01;;;;;;;9.23;8.53;;;7.40;99.90;;;;;;5033960;28;20183;-68
2022/01/24 10:09:33;;;;;;;9.40;8.60;;;7.20;99.90;;;;;;5074816;22;20628;-64
2022/01/24 10:18:08;;;;;;;9.07;8.17;;;7.00;99.90;;;;;;5034153;28;20206;-65
2022/01/24 10:20:39;;;;;;;9.00;8.40;;;7.10;99.90;;;;;;5032773;28;20171;-65
2022/01/24 10:23:21;;;;;;;9.07;8.57;;;7.10;99.90;;;;;;5032274;28;20176;-67
2022/01/24 10:26:03;;;;;;;8.83;8.33;;;7.00;99.90;;;;;;5032930;28;20171;-67
2022/01/24 10:28:38;;;;;;;9.37;8.77;;;6.90;99.90;;;;;;5035699;28;20222;-67
2022/01/24 10:31:09;;;;;;;10.17;9.57;;;6.80;99.90;;;;;;5053765;28;20236;-67
2022/01/24 10:34:06;;;;;;;9.70;8.80;;;6.70;99.90;;;;;;5053062;28;20210;-66
2022/01/24 10:36:40;;;;;;;9.00;8.50;;;6.50;99.90;;;;;;5053604;28;20177;-66
2022/01/24 10:39:09;;;;;;;10.03;9.03;;;6.50;99.90;;;;;;5053772;28;20217;-65
2022/01/24 10:44:29;;;;;;;8.50;8.00;;;6.60;99.90;;;;;;5053182;28;20178;-64
2022/01/24 10:47:18;;;;;;;9.33;8.57;;;6.50;99.90;;;;;;5053815;28;20167;-66
2022/01/24 10:49:44;;;;;;;8.73;8.23;;;6.60;99.90;;;;;;5053240;28;20261;-66
2022/01/24 10:52:13;;;;;;;8.83;8.23;;;6.60;99.90;;;;;;5053220;28;20648;-67
2022/01/24 10:54:40;;;;;;;9.13;8.47;;;6.80;99.90;;;;;;5052800;28;20206;-66
2022/01/24 10:57:06;;;;;;;9.37;8.63;;;6.80;99.90;;;;;;5053367;28;20308;-66
2022/01/24 10:59:35;;;;;;;9.20;8.60;;;6.70;99.90;;;;;;5052710;28;20277;-66
2022/01/24 11:02:02;;;;;;;9.00;8.40;;;6.60;99.90;;;;;;5052500;28;20175;-66
2022/01/24 11:04:28;;;;;;;9.00;8.50;;;6.60;99.90;;;;;;5052778;28;20258;-66
2022/01/24 11:06:56;;;;;;;8.90;8.40;;;6.40;99.90;;;;;;5052847;28;20253;-66
2022/01/24 11:09:30;;;;;;;10.40;9.47;;;6.30;99.90;;;;;;5052921;28;20706;-65
2022/01/24 11:11:56;;;;;;;9.83;9.23;;;6.20;99.90;;;;;;5052379;28;20179;-66
2022/01/24 11:14:25;;;;;;;8.70;8.17;;;6.10;99.90;;;;;;5052931;28;20199;-67
2022/01/24 11:16:52;;;;;;;8.73;8.20;;;6.20;99.90;;;;;;5052877;28;20269;-66
2022/01/24 11:19:45;;;;;;;9.20;8.60;;;6.30;99.90;;;;;;5053042;28;20187;-66
2022/01/24 11:22:18;;;;;;;9.47;8.87;;;6.30;99.90;;;;;;5051874;28;20293;-66
2022/01/24 11:24:52;;;;;;;9.40;8.70;;;6.30;99.90;;;;;;5052329;28;20174;-65
2022/01/24 11:27:17;;;;;;;9.50;8.80;;;6.30;99.90;;;;;;5052538;28;20256;-63
2022/01/24 11:29:44;;;;;;;9.27;8.67;;;6.30;99.90;;;;;;5051983;28;20249;-66
2022/01/24 11:32:13;;;;;;;9.97;9.03;;;6.20;99.90;;;;;;5053385;28;20187;-64
2022/01/24 11:34:40;;;;;;;9.37;8.67;;;6.20;99.90;;;;;;5053483;28;20195;-66
2022/01/24 11:37:08;;;;;;;9.80;9.20;;;6.20;99.90;;;;;;5054378;28;20811;-66
2022/01/24 11:39:34;;;;;;;9.83;9.23;;;6.40;99.90;;;;;;5053325;28;20179;-66
2022/01/24 11:42:02;;;;;;;9.90;9.30;;;6.50;99.90;;;;;;5053528;28;20662;-66
2022/01/24 11:44:46;;;;;;;9.77;9.23;;;6.50;99.90;;;;;;5052193;28;20253;-66
2022/01/24 11:47:31;;;;;;;10.03;9.10;;;6.50;99.90;;;;;;5052128;28;20185;-66
2022/01/24 11:49:58;;;;;;;10.83;9.87;;;6.50;99.90;;;;;;5051105;28;20243;-66
2022/01/24 11:52:33;;;;;;;10.17;9.57;;;6.70;99.90;;;;;;5051822;28;20182;-66
2022/01/24 11:55:16;;;;;;;10.27;9.47;;;6.70;99.90;;;;;;5052030;28;20205;-66
2022/01/24 11:57:45;;;;;;;10.30;9.63;;;6.80;99.90;;;;;;5051087;28;20194;-66
2022/01/24 12:00:10;;;;;;;12.10;11.30;;;6.70;99.90;;;;;;5052378;28;20509;-65
2022/01/24 12:02:46;;;;;;;10.83;10.13;;;6.80;99.90;;;;;;5049225;28;20181;-66
2022/01/24 12:05:26;;;;;;;9.73;9.10;;;6.90;99.90;;;;;;5051905;28;20224;-66
2022/01/24 12:07:57;;;;;;;10.57;9.77;;;6.90;99.90;;;;;;5051891;28;20210;-67
2022/01/24 12:10:25;;;;;;;10.10;9.40;;;6.90;99.90;;;;;;5051865;28;20261;-66
2022/01/24 12:12:55;;;;;;;10.57;9.70;;;6.80;99.90;;;;;;5051524;28;20183;-67
2022/01/24 12:15:43;;;;;;;10.70;9.80;;;6.80;99.90;;;;;;5052321;28;20202;-67
2022/01/24 12:18:10;;;;;;;10.87;10.07;;;6.80;99.90;;;;;;5046600;28;20297;-66
2022/01/24 12:20:36;;;;;;;9.63;8.93;;;6.80;99.90;;;;;;5052370;28;20175;-67
2022/01/24 12:23:18;;;;;;;10.30;9.70;;;6.80;99.90;;;;;;5051966;28;20182;-67
2022/01/24 12:25:52;;;;;;;10.10;9.30;;;6.80;99.90;;;;;;5052554;28;20194;-66
2022/01/24 12:28:24;;;;;;;9.60;8.90;;;6.90;99.90;;;;;;5052486;28;20561;-66
2022/01/24 12:31:08;;;;;;;10.50;9.80;;;7.10;99.90;;;;;;5052968;28;20175;-66
2022/01/24 12:33:36;;;;;;;9.57;8.97;;;7.10;99.90;;;;;;5052278;28;20186;-67
2022/01/24 12:36:04;;;;;;;8.60;8.10;;;7.20;99.90;;;;;;5050393;28;20541;-67
2022/01/24 12:38:56;;;;;;;9.83;9.07;;;7.20;99.90;;;;;;5051760;28;20210;-66
2022/01/24 12:41:33;;;;;;;9.23;8.63;;;7.10;99.90;;;;;;5052077;28;20191;-65
2022/01/24 12:46:32;;;;;;;9.50;8.80;;;6.90;99.90;;;;;;5051988;28;20262;-66
2022/01/24 12:49:03;;;;;;;9.87;9.07;;;6.90;99.90;;;;;;5052636;28;20210;-66
2022/01/24 12:51:31;;;;;;;10.20;9.60;;;6.80;99.90;;;;;;5052474;28;20548;-66
2022/01/24 12:53:57;;;;;;;10.23;9.63;;;6.70;99.90;;;;;;5052133;28;20206;-66
2022/01/24 12:56:25;;;;;;;11.50;10.70;;;6.70;99.90;;;;;;5051859;28;20240;-66
2022/01/24 12:58:51;;;;;;;12.33;11.50;;;6.70;99.90;;;;;;5053747;28;20240;-67
2022/01/24 13:01:34;;;;;;;11.03;10.23;;;6.70;99.90;;;;;;5051364;28;20261;-66
2022/01/24 13:04:10;;;;;;;11.93;10.63;;;6.70;99.90;;;;;;5051647;28;20174;-67
2022/01/24 13:06:42;;;;;;;11.40;10.60;;;6.70;99.90;;;;;;5052088;28;20183;-66
2022/01/24 13:09:13;;;;;;;10.60;9.90;;;6.60;99.90;;;;;;5050009;28;20233;-67
2022/01/24 13:12:01;;;;;;;10.43;9.83;;;6.70;99.90;;;;;;5051902;28;20183;-66
2022/01/24 13:14:41;;;;;;;9.73;9.13;;;6.70;99.90;;;;;;5051700;28;20618;-66
2022/01/24 13:25:29;;;;;;;9.70;9.10;;;7.10;99.90;;;;;;5056365;28;20241;-66
2022/01/24 13:27:58;;;;;;;9.77;9.23;;;7.10;99.90;;;;;;5054963;28;20618;-66
2022/01/24 13:30:27;;;;;;;10.00;9.40;;;7.10;99.90;;;;;;5055932;28;20675;-66
2022/01/24 13:33:03;;;;;;;10.00;9.33;;;7.10;99.90;;;;;;5051457;28;20659;-66
2022/01/24 13:35:31;;;;;;;10.63;10.03;;;7.10;99.90;;;;;;5055160;28;20214;-65
2022/01/24 13:38:06;;;;;;;11.27;10.57;;;7.10;99.90;;;;;;5057212;28;20244;-66
2022/01/24 13:40:34;;;;;;;10.30;9.70;;;7.10;99.90;;;;;;5055655;28;20178;-66
2022/01/24 13:43:00;;;;;;;10.53;9.93;;;7.10;99.90;;;;;;5056226;28;20178;-66
2022/01/24 13:45:26;;;;;;;10.37;9.67;;;7.00;99.90;;;;;;5057645;28;20214;-65
2022/01/24 13:48:00;;;;;;;9.57;9.07;;;6.90;99.90;;;;;;5055436;28;20198;-65
2022/01/24 13:50:27;;;;;;;10.10;9.50;;;6.90;99.90;;;;;;5055233;28;20245;-66
2022/01/24 13:52:53;;;;;;;10.73;10.13;;;6.90;99.90;;;;;;5054827;28;20178;-66
2022/01/24 13:55:20;;;;;;;10.67;10.00;;;6.80;99.90;;;;;;5055324;28;20293;-66
2022/01/24 13:57:48;;;;;;;10.90;10.10;;;6.80;99.90;;;;;;5055790;28;20187;-64
2022/01/24 14:00:20;;;;;;;10.57;9.87;;;6.80;99.90;;;;;;5056809;28;20186;-66
2022/01/24 14:02:45;;;;;;;10.97;10.27;;;6.70;99.90;;;;;;5057220;28;20179;-66
2022/01/24 14:05:11;;;;;;;11.70;10.97;;;6.70;99.90;;;;;;5057451;28;20247;-66
2022/01/24 14:07:41;;;;;;;11.47;10.70;;;6.70;99.90;;;;;;5054966;28;20663;-66
2022/01/24 14:10:12;;;;;;;9.47;8.87;;;6.50;99.90;;;;;;5055750;28;20685;-66
2022/01/24 14:12:44;;;;;;;10.80;10.00;;;6.40;99.90;;;;;;5055554;28;20167;-66
2022/01/24 14:15:19;;;;;;;11.10;10.40;;;6.30;99.90;;;;;;5055533;28;20209;-66
2022/01/24 14:18:07;;;;;;;10.50;9.80;;;6.30;99.90;;;;;;5055737;28;20222;-67
2022/01/24 14:20:33;;;;;;;10.43;9.63;;;6.30;99.90;;;;;;5055408;28;20640;-67
2022/01/24 14:22:59;;;;;;;10.20;9.63;;;6.30;99.90;;;;;;5054887;28;20182;-66
2022/01/24 14:25:28;;;;;;;10.17;9.47;;;6.30;99.90;;;;;;5055363;28;20254;-66
2022/01/24 14:27:58;;;;;;;9.77;9.07;;;6.20;99.90;;;;;;5054901;28;20565;-67
2022/01/24 14:30:27;;;;;;;10.23;9.33;;;6.00;99.90;;;;;;5055822;28;20651;-67
2022/01/24 14:33:00;;;;;;;9.90;9.20;;;6.00;99.90;;;;;;5054814;28;20182;-67
2022/01/24 14:35:27;;;;;;;9.73;9.03;;;5.90;99.90;;;;;;5055382;28;20234;-67
2022/01/24 14:37:56;;;;;;;10.07;9.40;;;5.90;99.90;;;;;;5054916;28;20193;-67
2022/01/24 14:40:46;;;;;;;9.97;9.37;;;5.90;99.90;;;;;;5055170;28;20167;-67
2022/01/24 14:46:01;;;;;;;9.60;9.00;;;5.80;99.90;;;;;;5053931;28;20701;-68
2022/01/24 14:48:27;;;;;;;10.43;9.53;;;5.80;99.90;;;;;;5034410;28;20234;-67
2022/01/24 14:50:52;;;;;;;9.10;8.60;;;5.80;99.90;;;;;;5034178;28;20586;-67
2022/01/24 14:53:19;;;;;;;9.33;8.73;;;5.90;99.90;;;;;;5052071;28;20228;-67
2022/01/24 14:55:45;;;;;;;9.30;8.80;;;5.90;99.90;;;;;;5054037;28;20224;-67
2022/01/24 14:58:11;;;;;;;9.97;9.33;;;5.90;99.90;;;;;;5054162;28;20624;-67
2022/01/24 15:00:36;;;;;;;9.90;9.20;;;6.00;99.90;;;;;;5054069;28;20182;-67
2022/01/24 15:03:02;;;;;;;11.97;11.07;;;6.00;99.90;;;;;;5052472;28;20182;-66